createdAt,value
2022-11-02T00:00:27.714Z,9.16
2022-11-02T00:01:09.182Z,9.16
2022-11-02T00:01:46.339Z,9.16
2022-11-02T00:02:18.657Z,9.16
2022-11-02T00:02:51.009Z,9.17
2022-11-02T00:03:25.793Z,9.19
2022-11-02T00:03:58.001Z,9.20
2022-11-02T00:04:30.075Z,9.20
2022-11-02T00:05:02.189Z,9.22
2022-11-02T00:05:36.951Z,9.22
2022-11-02T00:06:09.059Z,9.23
2022-11-02T00:06:41.464Z,9.23
2022-11-02T00:07:18.738Z,9.26
2022-11-02T00:07:51.316Z,9.26
2022-11-02T00:08:23.377Z,9.26
2022-11-02T00:08:58.033Z,9.28
2022-11-02T00:09:30.089Z,9.28
2022-11-02T00:10:02.313Z,9.29
2022-11-02T00:10:37.078Z,9.29
2022-11-02T00:11:09.267Z,9.30
2022-11-02T00:11:41.865Z,9.30
2022-11-02T00:12:13.953Z,9.30
2022-11-02T00:12:48.889Z,9.31
2022-11-02T00:13:21.021Z,9.30
2022-11-02T00:13:53.116Z,9.30
2022-11-02T00:14:28.055Z,9.30
2022-11-02T00:15:00.159Z,9.30
2022-11-02T00:15:36.462Z,9.31
2022-11-02T00:16:14.777Z,9.30
2022-11-02T00:16:47.148Z,9.28
2022-11-02T00:17:19.276Z,9.28
2022-11-02T00:17:58.319Z,9.29
2022-11-02T00:18:30.956Z,9.27
2022-11-02T00:19:06.906Z,9.26
2022-11-02T00:19:38.999Z,9.26
2022-11-02T00:20:14.310Z,9.27
2022-11-02T00:20:49.054Z,9.27
2022-11-02T00:21:21.972Z,9.27
2022-11-02T00:21:55.758Z,9.26
2022-11-02T00:22:34.020Z,9.27
2022-11-02T00:23:07.980Z,9.25
2022-11-02T00:23:41.668Z,9.26
2022-11-02T00:24:16.429Z,9.26
2022-11-02T00:24:48.509Z,9.26
2022-11-02T00:25:23.800Z,9.27
2022-11-02T00:25:58.695Z,9.26
2022-11-02T00:26:38.808Z,9.23
2022-11-02T00:27:11.528Z,9.23
2022-11-02T00:27:43.760Z,9.23
2022-11-02T00:28:19.250Z,9.24
2022-11-02T00:28:51.606Z,9.24
2022-11-02T00:29:24.455Z,9.25
2022-11-02T00:29:59.233Z,9.24
2022-11-02T00:30:31.339Z,9.23
2022-11-02T00:31:03.598Z,9.24
2022-11-02T00:31:38.362Z,9.24
2022-11-02T00:32:10.449Z,9.23
2022-11-02T00:32:42.707Z,9.23
2022-11-02T00:33:17.384Z,9.22
2022-11-02T00:33:49.621Z,9.22
2022-11-02T00:34:21.752Z,9.20
2022-11-02T00:34:56.404Z,9.19
2022-11-02T00:35:28.717Z,9.18
2022-11-02T00:36:00.842Z,9.17
2022-11-02T00:36:36.804Z,9.16
2022-11-02T00:37:08.867Z,9.15
2022-11-02T00:37:43.633Z,9.14
2022-11-02T00:38:18.426Z,9.15
2022-11-02T00:38:50.802Z,9.15
2022-11-02T00:39:24.286Z,9.14
2022-11-02T00:39:58.941Z,9.16
2022-11-02T00:40:31.047Z,9.15
2022-11-02T00:41:03.226Z,9.15
2022-11-02T00:41:37.924Z,9.13
2022-11-02T00:42:10.179Z,9.13
2022-11-02T00:42:42.275Z,9.13
2022-11-02T00:43:14.520Z,9.11
2022-11-02T00:43:49.200Z,9.10
2022-11-02T00:44:21.263Z,9.10
2022-11-02T00:44:53.384Z,9.11
2022-11-02T00:45:28.233Z,9.11
2022-11-02T00:46:01.098Z,9.09
2022-11-02T00:46:33.181Z,9.08
2022-11-02T00:47:07.962Z,9.09
2022-11-02T00:47:40.202Z,9.07
2022-11-02T00:48:12.279Z,9.09
2022-11-02T00:48:47.189Z,9.10
2022-11-02T00:49:19.298Z,9.09
2022-11-02T00:49:51.580Z,9.10
2022-11-02T00:50:26.269Z,9.10
2022-11-02T00:50:58.356Z,9.11
2022-11-02T00:51:33.612Z,9.10
2022-11-02T00:52:09.066Z,9.11
2022-11-02T00:52:43.850Z,9.10
2022-11-02T00:53:16.076Z,9.11
2022-11-02T00:53:58.490Z,9.10
2022-11-02T00:54:31.030Z,9.09
2022-11-02T00:55:03.237Z,9.09
2022-11-02T00:55:38.245Z,9.09
2022-11-02T00:56:10.724Z,9.09
2022-11-02T00:56:42.812Z,9.09
2022-11-02T00:57:17.475Z,9.08
2022-11-02T00:57:49.754Z,9.07
2022-11-02T00:58:22.069Z,9.08
2022-11-02T00:58:58.431Z,9.06
2022-11-02T00:59:30.532Z,9.06
2022-11-02T01:00:02.881Z,9.07
2022-11-02T01:00:37.546Z,9.06
2022-11-02T01:01:09.758Z,9.05
2022-11-02T01:01:47.377Z,9.05
2022-11-02T01:02:22.281Z,9.03
2022-11-02T01:02:54.600Z,8.99
2022-11-02T01:03:26.674Z,9.03
2022-11-02T01:04:01.803Z,9.03
2022-11-02T01:04:34.285Z,9.03
2022-11-02T01:05:08.645Z,9.02
2022-11-02T01:05:43.318Z,9.03
2022-11-02T01:06:16.107Z,9.03
2022-11-02T01:06:48.205Z,9.01
2022-11-02T01:07:22.981Z,9.02
2022-11-02T01:07:57.740Z,9.01
2022-11-02T01:08:29.819Z,9.01
2022-11-02T01:09:06.520Z,8.99
2022-11-02T01:09:38.664Z,8.99
2022-11-02T01:10:11.658Z,9.00
2022-11-02T01:10:48.412Z,8.98
2022-11-02T01:11:23.875Z,8.97
2022-11-02T01:11:56.521Z,8.96
2022-11-02T01:12:31.190Z,8.97
2022-11-02T01:13:03.392Z,8.98
2022-11-02T01:13:35.469Z,8.97
2022-11-02T01:14:10.408Z,8.98
2022-11-02T01:14:42.566Z,8.97
2022-11-02T01:15:14.735Z,8.98
2022-11-02T01:15:49.380Z,8.98
2022-11-02T01:16:21.538Z,8.96
2022-11-02T01:16:54.749Z,8.96
2022-11-02T01:17:27.004Z,8.97
2022-11-02T01:18:01.981Z,8.95
2022-11-02T01:18:34.543Z,8.94
2022-11-02T01:19:07.053Z,8.93
2022-11-02T01:19:41.727Z,8.92
2022-11-02T01:20:14.082Z,8.92
2022-11-02T01:20:46.178Z,8.92
2022-11-02T01:21:20.835Z,8.92
2022-11-02T01:21:52.915Z,8.91
2022-11-02T01:22:25.358Z,8.90
2022-11-02T01:23:24.099Z,8.89
2022-11-02T01:23:58.779Z,8.84
2022-11-02T01:24:30.877Z,8.84
2022-11-02T01:25:06.263Z,8.85
2022-11-02T01:25:38.345Z,8.86
2022-11-02T01:26:11.988Z,8.85
2022-11-02T01:26:48.239Z,8.86
2022-11-02T01:27:20.325Z,8.85
2022-11-02T01:27:55.048Z,8.85
2022-11-02T01:28:27.256Z,8.84
2022-11-02T01:28:59.455Z,8.85
2022-11-02T01:29:31.551Z,8.85
2022-11-02T01:30:07.826Z,8.89
2022-11-02T01:30:41.225Z,8.84
2022-11-02T01:31:13.427Z,8.83
2022-11-02T01:31:48.709Z,8.84
2022-11-02T01:32:22.467Z,8.82
2022-11-02T01:32:54.553Z,8.82
2022-11-02T01:33:29.378Z,8.81
2022-11-02T01:34:01.585Z,8.80
2022-11-02T01:34:33.653Z,8.80
2022-11-02T01:35:08.749Z,8.80
2022-11-02T01:35:41.120Z,8.78
2022-11-02T01:36:14.930Z,8.77
2022-11-02T01:36:49.961Z,8.74
2022-11-02T01:37:22.381Z,8.74
2022-11-02T01:37:54.476Z,8.74
2022-11-02T01:38:29.139Z,8.75
2022-11-02T01:39:04.355Z,8.73
2022-11-02T01:39:36.481Z,8.71
2022-11-02T01:40:12.559Z,8.70
2022-11-02T01:40:44.648Z,8.68
2022-11-02T01:41:17.595Z,8.68
2022-11-02T01:41:55.428Z,8.65
2022-11-02T01:42:28.836Z,8.62
2022-11-02T01:43:01.775Z,8.63
2022-11-02T01:43:38.624Z,8.62
2022-11-02T01:44:28.854Z,8.59
2022-11-02T01:45:03.541Z,8.57
2022-11-02T01:45:35.751Z,8.58
2022-11-02T01:46:16.972Z,8.56
2022-11-02T01:46:51.699Z,8.57
2022-11-02T01:47:27.112Z,8.56
2022-11-02T01:48:02.026Z,8.57
2022-11-02T01:48:36.795Z,8.56
2022-11-02T01:49:17.750Z,8.57
2022-11-02T01:49:56.497Z,8.53
2022-11-02T01:50:28.780Z,8.53
2022-11-02T01:51:05.832Z,8.53
2022-11-02T01:51:44.389Z,8.51
2022-11-02T01:52:20.439Z,8.50
2022-11-02T01:52:52.910Z,8.49
2022-11-02T01:53:27.608Z,8.49
2022-11-02T01:54:08.779Z,8.50
2022-11-02T01:54:44.767Z,8.48
2022-11-02T01:55:23.295Z,8.48
2022-11-02T01:55:55.964Z,8.48
2022-11-02T01:56:31.883Z,8.49
2022-11-02T01:57:09.725Z,8.49
2022-11-02T01:57:46.934Z,8.46
2022-11-02T01:58:19.164Z,8.44
2022-11-02T01:58:59.851Z,8.45
2022-11-02T01:59:37.184Z,8.44
2022-11-02T02:00:12.737Z,8.43
2022-11-02T02:00:50.165Z,8.41
2022-11-02T02:01:22.529Z,8.42
2022-11-02T02:01:54.817Z,8.42
2022-11-02T02:02:28.419Z,8.43
2022-11-02T02:03:08.332Z,8.45
2022-11-02T02:03:43.597Z,8.43
2022-11-02T02:04:16.026Z,8.43
2022-11-02T02:04:55.479Z,8.44
2022-11-02T02:05:31.085Z,8.43
2022-11-02T02:06:09.165Z,8.42
2022-11-02T02:06:44.885Z,8.41
2022-11-02T02:07:18.254Z,8.41
2022-11-02T02:07:51.371Z,8.41
2022-11-02T02:08:28.080Z,8.40
2022-11-02T02:09:07.465Z,8.40
2022-11-02T02:09:39.643Z,8.37
2022-11-02T02:10:14.648Z,8.39
2022-11-02T02:10:46.757Z,8.38
2022-11-02T02:11:27.306Z,8.39
2022-11-02T02:11:59.372Z,8.38
2022-11-02T02:12:35.585Z,8.39
2022-11-02T02:13:08.051Z,8.39
2022-11-02T02:13:40.166Z,8.39
2022-11-02T02:14:17.263Z,8.40
2022-11-02T02:14:53.918Z,8.37
2022-11-02T02:15:44.092Z,8.40
2022-11-02T02:16:29.889Z,8.34
2022-11-02T02:17:21.147Z,8.30
2022-11-02T02:18:03.839Z,8.30
2022-11-02T02:18:43.291Z,8.29
2022-11-02T02:19:28.209Z,8.29
2022-11-02T02:20:10.868Z,8.28
2022-11-02T02:21:02.669Z,8.28
2022-11-02T02:21:46.237Z,8.24
2022-11-02T02:23:04.489Z,8.19
2022-11-02T02:24:10.294Z,8.16
2022-11-02T02:24:54.828Z,8.15
2022-11-02T02:25:45.602Z,8.16
2022-11-02T02:26:50.521Z,8.14
2022-11-02T02:27:30.286Z,8.13
2022-11-02T02:28:22.236Z,8.13
2022-11-02T02:28:59.314Z,8.12
2022-11-02T02:29:49.336Z,8.13
2022-11-02T02:30:21.739Z,8.12
2022-11-02T02:30:59.165Z,8.14
2022-11-02T02:31:39.589Z,8.15
2022-11-02T02:32:13.960Z,8.08
2022-11-02T02:32:52.556Z,8.09
2022-11-02T02:33:34.689Z,8.10
2022-11-02T02:34:12.913Z,8.12
2022-11-02T02:34:51.963Z,8.14
2022-11-02T02:35:31.463Z,8.14
2022-11-02T02:36:12.042Z,8.14
2022-11-02T02:37:45.854Z,8.07
2022-11-02T02:38:25.413Z,8.09
2022-11-02T02:39:03.586Z,8.12
2022-11-02T02:39:45.015Z,8.13
2022-11-02T02:40:22.129Z,8.13
2022-11-02T02:40:59.986Z,8.14
2022-11-02T02:41:41.917Z,8.14
2022-11-02T02:42:20.131Z,8.14
2022-11-02T02:42:57.092Z,8.12
2022-11-02T02:43:39.714Z,8.14
2022-11-02T02:44:16.439Z,8.14
2022-11-02T02:44:58.896Z,8.15
2022-11-02T02:45:39.179Z,8.15
2022-11-02T02:46:19.088Z,8.15
2022-11-02T02:46:56.928Z,8.14
2022-11-02T02:47:36.330Z,8.15
2022-11-02T02:48:14.890Z,8.13
2022-11-02T02:48:48.914Z,8.13
2022-11-02T02:49:29.099Z,8.16
2022-11-02T02:50:06.929Z,8.14
2022-11-02T02:50:45.181Z,8.12
2022-11-02T02:51:25.792Z,8.14
2022-11-02T02:52:00.644Z,8.12
2022-11-02T02:52:34.952Z,8.14
2022-11-02T02:53:11.035Z,8.14
2022-11-02T02:53:47.546Z,8.17
2022-11-02T02:54:26.323Z,8.16
2022-11-02T02:55:03.745Z,8.14
2022-11-02T02:55:41.454Z,8.15
2022-11-02T02:56:16.420Z,8.14
2022-11-02T02:56:54.549Z,8.13
2022-11-02T02:57:30.837Z,8.13
2022-11-02T02:58:05.001Z,8.13
2022-11-02T02:58:48.066Z,8.13
2022-11-02T02:59:24.664Z,8.12
2022-11-02T02:59:56.854Z,8.12
2022-11-02T03:00:33.273Z,8.11
2022-11-02T03:01:06.907Z,8.09
2022-11-02T03:01:44.383Z,8.08
2022-11-02T03:02:24.078Z,8.08
2022-11-02T03:03:01.466Z,8.06
2022-11-02T03:03:35.160Z,8.05
2022-11-02T03:04:14.449Z,8.06
2022-11-02T03:04:46.530Z,8.05
2022-11-02T03:05:26.608Z,8.05
2022-11-02T03:06:07.948Z,8.05
2022-11-02T03:06:45.393Z,8.04
2022-11-02T03:07:23.806Z,8.05
2022-11-02T03:08:03.471Z,8.02
2022-11-02T03:08:38.028Z,8.03
2022-11-02T03:09:21.573Z,8.02
2022-11-02T03:10:05.954Z,7.99
2022-11-02T03:10:49.428Z,7.99
2022-11-02T03:11:23.470Z,8.00
2022-11-02T03:12:09.297Z,8.00
2022-11-02T03:12:55.658Z,7.98
2022-11-02T03:13:39.005Z,7.97
2022-11-02T03:14:27.313Z,7.96
2022-11-02T03:15:10.516Z,7.95
2022-11-02T03:15:49.381Z,7.93
2022-11-02T03:16:41.767Z,7.92
2022-11-02T03:17:16.978Z,7.89
2022-11-02T03:18:03.775Z,7.89
2022-11-02T03:18:49.986Z,7.88
2022-11-02T03:19:30.820Z,7.88
2022-11-02T03:20:12.022Z,7.88
2022-11-02T03:21:01.230Z,7.87
2022-11-02T03:21:40.689Z,7.86
2022-11-02T03:22:33.296Z,7.85
2022-11-02T03:23:16.688Z,7.84
2022-11-02T03:23:55.722Z,7.85
2022-11-02T03:24:35.926Z,7.85
2022-11-02T03:25:11.052Z,7.79
2022-11-02T03:25:56.213Z,7.80
2022-11-02T03:26:34.654Z,7.81
2022-11-02T03:27:18.857Z,7.81
2022-11-02T03:27:58.823Z,7.81
2022-11-02T03:28:43.181Z,7.81
2022-11-02T03:29:21.808Z,7.81
2022-11-02T03:30:04.341Z,7.82
2022-11-02T03:30:42.874Z,7.81
2022-11-02T03:31:25.152Z,7.82
2022-11-02T03:32:01.001Z,7.81
2022-11-02T03:32:39.709Z,7.82
2022-11-02T03:33:22.400Z,7.81
2022-11-02T03:33:59.956Z,7.80
2022-11-02T03:34:37.816Z,7.79
2022-11-02T03:35:20.453Z,7.80
2022-11-02T03:36:00.170Z,7.78
2022-11-02T03:36:37.863Z,7.77
2022-11-02T03:37:19.634Z,7.77
2022-11-02T03:37:56.574Z,7.76
2022-11-02T03:38:38.068Z,7.76
2022-11-02T03:39:13.963Z,7.74
2022-11-02T03:39:49.280Z,7.73
2022-11-02T03:40:28.855Z,7.74
2022-11-02T03:41:03.421Z,7.72
2022-11-02T03:41:38.000Z,7.71
2022-11-02T03:42:16.573Z,7.73
2022-11-02T03:42:50.923Z,7.71
2022-11-02T03:43:25.212Z,7.72
2022-11-02T03:44:07.106Z,7.73
2022-11-02T03:44:41.982Z,7.64
2022-11-02T03:45:18.974Z,7.64
2022-11-02T03:45:57.817Z,7.67
2022-11-02T03:46:34.350Z,7.67
2022-11-02T03:47:10.989Z,7.66
2022-11-02T03:47:46.973Z,7.65
2022-11-02T03:48:24.677Z,7.64
2022-11-02T03:48:57.502Z,7.64
2022-11-02T03:49:31.815Z,7.63
2022-11-02T03:50:08.980Z,7.64
2022-11-02T03:50:52.553Z,7.64
2022-11-02T03:51:28.921Z,7.62
2022-11-02T03:52:09.061Z,7.62
2022-11-02T03:52:45.936Z,7.62
2022-11-02T03:53:25.712Z,7.64
2022-11-02T03:54:06.868Z,7.61
2022-11-02T03:54:43.848Z,7.63
2022-11-02T03:55:23.280Z,7.63
2022-11-02T03:56:00.642Z,7.64
2022-11-02T03:56:38.673Z,7.63
2022-11-02T03:57:19.119Z,7.64
2022-11-02T03:57:52.906Z,7.65
2022-11-02T03:58:30.377Z,7.65
2022-11-02T03:59:05.513Z,7.68
2022-11-02T03:59:37.988Z,7.70
2022-11-02T04:00:15.798Z,7.72
2022-11-02T04:00:57.408Z,7.72
2022-11-02T04:01:31.758Z,7.72
2022-11-02T04:02:04.523Z,7.75
2022-11-02T04:02:39.025Z,7.76
2022-11-02T04:03:15.695Z,7.77
2022-11-02T04:03:50.150Z,7.77
2022-11-02T04:04:23.502Z,7.79
2022-11-02T04:04:58.816Z,7.80
2022-11-02T04:05:33.028Z,7.81
2022-11-02T04:06:09.157Z,7.82
2022-11-02T04:06:45.656Z,7.83
2022-11-02T04:07:22.337Z,7.83
2022-11-02T04:08:11.186Z,7.84
2022-11-02T04:08:49.446Z,7.82
2022-11-02T04:09:24.576Z,7.83
2022-11-02T04:09:56.923Z,7.84
2022-11-02T04:10:31.613Z,7.86
2022-11-02T04:11:18.888Z,7.86
2022-11-02T04:12:07.313Z,7.86
2022-11-02T04:12:54.515Z,7.85
2022-11-02T04:13:41.680Z,7.86
2022-11-02T04:14:28.795Z,7.86
2022-11-02T04:15:02.449Z,7.86
2022-11-02T04:15:40.289Z,7.89
2022-11-02T04:16:12.932Z,7.90
2022-11-02T04:16:46.554Z,7.93
2022-11-02T04:17:45.174Z,7.93
2022-11-02T04:18:35.229Z,7.92
2022-11-02T04:19:24.492Z,7.92
2022-11-02T04:20:00.741Z,7.91
2022-11-02T04:20:32.866Z,7.93
2022-11-02T04:21:05.597Z,7.94
2022-11-02T04:21:37.814Z,7.95
2022-11-02T04:22:25.231Z,7.97
2022-11-02T04:23:22.719Z,7.93
2022-11-02T04:24:10.931Z,7.93
2022-11-02T04:24:58.221Z,7.91
2022-11-02T04:25:33.434Z,7.91
2022-11-02T04:26:19.643Z,7.91
2022-11-02T04:26:51.779Z,7.94
2022-11-02T04:27:26.497Z,7.96
2022-11-02T04:28:07.895Z,7.96
2022-11-02T04:28:45.650Z,7.95
2022-11-02T04:29:17.784Z,7.96
2022-11-02T04:29:51.217Z,7.96
2022-11-02T04:30:27.279Z,7.98
2022-11-02T04:31:03.491Z,7.97
2022-11-02T04:31:40.975Z,7.89
2022-11-02T04:32:35.814Z,7.91
2022-11-02T04:33:24.127Z,7.90
2022-11-02T04:34:01.593Z,7.89
2022-11-02T04:34:33.681Z,7.92
2022-11-02T04:35:07.367Z,7.93
2022-11-02T04:35:42.393Z,7.94
2022-11-02T04:36:14.990Z,7.96
2022-11-02T04:36:48.190Z,7.97
2022-11-02T04:37:35.188Z,7.98
2022-11-02T04:38:22.550Z,7.96
2022-11-02T04:38:55.108Z,7.96
2022-11-02T04:39:33.116Z,7.96
2022-11-02T04:40:06.175Z,7.98
2022-11-02T04:40:38.354Z,8.00
2022-11-02T04:41:28.021Z,8.01
2022-11-02T04:42:02.883Z,7.98
2022-11-02T04:42:40.348Z,7.93
2022-11-02T04:43:15.333Z,7.95
2022-11-02T04:43:47.671Z,7.97
2022-11-02T04:44:24.846Z,7.99
2022-11-02T04:45:13.047Z,7.99
2022-11-02T04:45:45.366Z,8.00
2022-11-02T04:46:20.502Z,8.01
2022-11-02T04:46:55.960Z,8.01
2022-11-02T04:47:31.710Z,8.00
2022-11-02T04:48:05.884Z,8.00
2022-11-02T04:48:41.206Z,8.01
2022-11-02T04:49:14.429Z,8.01
2022-11-02T04:49:47.292Z,8.01
2022-11-02T04:50:25.306Z,8.01
2022-11-02T04:50:58.352Z,8.01
2022-11-02T04:51:31.674Z,8.02
2022-11-02T04:52:06.692Z,8.01
2022-11-02T04:52:40.790Z,8.01
2022-11-02T04:53:13.837Z,8.03
2022-11-02T04:53:49.276Z,8.01
2022-11-02T04:54:21.978Z,7.99
2022-11-02T04:54:59.165Z,8.00
2022-11-02T04:55:34.729Z,8.00
2022-11-02T04:56:07.666Z,7.99
2022-11-02T04:56:39.767Z,8.00
2022-11-02T04:57:14.639Z,8.01
2022-11-02T04:57:48.365Z,7.99
2022-11-02T04:58:20.436Z,8.00
2022-11-02T04:58:57.151Z,7.99
2022-11-02T04:59:29.299Z,7.97
2022-11-02T05:00:01.608Z,7.98
2022-11-02T05:00:38.439Z,7.98
2022-11-02T05:01:15.356Z,7.97
2022-11-02T05:01:51.506Z,7.97
2022-11-02T05:02:26.529Z,7.98
2022-11-02T05:02:59.258Z,7.97
2022-11-02T05:03:31.959Z,7.97
2022-11-02T05:04:06.921Z,7.96
2022-11-02T05:04:40.692Z,7.94
2022-11-02T05:05:13.716Z,7.93
2022-11-02T05:05:47.126Z,7.91
2022-11-02T05:06:23.632Z,7.92
2022-11-02T05:07:01.089Z,7.91
2022-11-02T05:07:33.898Z,7.90
2022-11-02T05:08:06.856Z,7.91
2022-11-02T05:08:42.275Z,7.92
2022-11-02T05:09:14.373Z,7.92
2022-11-02T05:09:49.833Z,7.92
2022-11-02T05:10:25.376Z,7.93
2022-11-02T05:10:59.681Z,7.93
2022-11-02T05:11:33.133Z,7.92
2022-11-02T05:12:08.586Z,7.93
2022-11-02T05:12:40.852Z,7.94
2022-11-02T05:13:12.941Z,7.93
2022-11-02T05:13:47.623Z,7.93
2022-11-02T05:14:19.753Z,7.93
2022-11-02T05:14:51.851Z,7.93
2022-11-02T05:15:24.053Z,7.93
2022-11-02T05:15:59.843Z,7.93
2022-11-02T05:16:31.978Z,7.93
2022-11-02T05:17:06.653Z,7.93
2022-11-02T05:17:43.277Z,7.93
2022-11-02T05:18:19.217Z,7.94
2022-11-02T05:18:52.318Z,7.92
2022-11-02T05:19:25.597Z,7.93
2022-11-02T05:20:00.771Z,7.94
2022-11-02T05:20:34.159Z,7.95
2022-11-02T05:21:06.443Z,7.95
2022-11-02T05:21:41.189Z,7.95
2022-11-02T05:22:13.445Z,7.94
2022-11-02T05:22:45.603Z,7.95
2022-11-02T05:23:22.549Z,7.95
2022-11-02T05:23:54.686Z,7.95
2022-11-02T05:24:26.776Z,7.96
2022-11-02T05:25:01.514Z,7.97
2022-11-02T05:25:34.310Z,7.97
2022-11-02T05:26:09.216Z,7.97
2022-11-02T05:26:44.352Z,7.99
2022-11-02T05:27:16.582Z,7.99
2022-11-02T05:27:50.505Z,8.01
2022-11-02T05:28:27.627Z,8.00
2022-11-02T05:28:59.839Z,7.99
2022-11-02T05:29:31.973Z,8.01
2022-11-02T05:30:08.608Z,8.02
2022-11-02T05:30:40.658Z,8.01
2022-11-02T05:31:12.848Z,8.02
2022-11-02T05:31:47.606Z,8.01
2022-11-02T05:32:23.082Z,8.00
2022-11-02T05:32:56.475Z,8.00
2022-11-02T05:33:32.567Z,7.99
2022-11-02T05:34:09.824Z,7.97
2022-11-02T05:34:42.641Z,7.98
2022-11-02T05:35:18.403Z,7.99
2022-11-02T05:35:50.531Z,7.99
2022-11-02T05:36:22.704Z,8.00
2022-11-02T05:36:59.403Z,8.00
2022-11-02T05:37:31.501Z,8.00
2022-11-02T05:38:03.932Z,8.01
2022-11-02T05:39:11.615Z,8.03
2022-11-02T05:39:47.766Z,8.03
2022-11-02T05:40:25.038Z,8.02
2022-11-02T05:40:59.565Z,8.03
2022-11-02T05:41:35.150Z,8.01
2022-11-02T05:42:09.964Z,8.03
2022-11-02T05:42:42.047Z,8.03
2022-11-02T05:43:16.701Z,8.03
2022-11-02T05:43:52.049Z,8.05
2022-11-02T05:44:26.070Z,8.03
2022-11-02T05:44:59.404Z,8.03
2022-11-02T05:45:34.127Z,8.04
2022-11-02T05:46:06.204Z,8.04
2022-11-02T05:46:38.274Z,8.06
2022-11-02T05:47:13.145Z,8.07
2022-11-02T05:47:47.903Z,8.07
2022-11-02T05:48:20.812Z,8.07
2022-11-02T05:48:55.489Z,8.08
2022-11-02T05:49:27.586Z,8.08
2022-11-02T05:49:59.957Z,8.08
2022-11-02T05:50:34.673Z,8.11
2022-11-02T05:51:08.211Z,8.09
2022-11-02T05:51:42.917Z,8.11
2022-11-02T05:52:15.532Z,8.10
2022-11-02T05:52:48.011Z,8.10
2022-11-02T05:53:22.750Z,8.13
2022-11-02T05:53:54.886Z,8.13
2022-11-02T05:54:27.012Z,8.14
2022-11-02T05:55:01.848Z,8.14
2022-11-02T05:55:35.516Z,8.14
2022-11-02T05:56:08.619Z,8.15
2022-11-02T05:56:43.431Z,8.16
2022-11-02T05:57:17.205Z,8.15
2022-11-02T05:57:51.617Z,8.16
2022-11-02T05:58:26.452Z,8.15
2022-11-02T05:58:58.585Z,8.16
2022-11-02T05:59:30.697Z,8.17
2022-11-02T06:00:05.957Z,8.18
2022-11-02T06:00:44.407Z,8.17
2022-11-02T06:01:17.285Z,8.18
2022-11-02T06:01:52.042Z,8.19
2022-11-02T06:02:25.458Z,8.20
2022-11-02T06:03:00.412Z,8.22
2022-11-02T06:03:36.254Z,8.22
2022-11-02T06:04:08.600Z,8.23
2022-11-02T06:04:40.712Z,8.24
2022-11-02T06:05:15.599Z,8.26
2022-11-02T06:05:47.933Z,8.26
2022-11-02T06:06:22.626Z,8.27
2022-11-02T06:06:54.955Z,8.26
2022-11-02T06:07:27.121Z,8.27
2022-11-02T06:08:02.665Z,8.28
2022-11-02T06:08:36.082Z,8.28
2022-11-02T06:09:08.645Z,8.29
2022-11-02T06:09:43.313Z,8.28
2022-11-02T06:10:15.466Z,8.28
2022-11-02T06:10:48.886Z,8.28
2022-11-02T06:11:23.763Z,8.29
2022-11-02T06:11:56.707Z,8.28
2022-11-02T06:12:29.070Z,8.28
2022-11-02T06:13:05.608Z,8.28
2022-11-02T06:13:38.312Z,8.28
2022-11-02T06:14:10.679Z,8.28
2022-11-02T06:14:45.400Z,8.30
2022-11-02T06:15:17.584Z,8.29
2022-11-02T06:15:52.683Z,8.30
2022-11-02T06:16:24.852Z,8.30
2022-11-02T06:16:57.512Z,8.32
2022-11-02T06:17:32.345Z,8.32
2022-11-02T06:18:07.997Z,8.33
2022-11-02T06:18:40.159Z,8.33
2022-11-02T06:20:08.596Z,8.30
2022-11-02T06:20:40.689Z,8.30
2022-11-02T06:21:15.761Z,8.32
2022-11-02T06:21:48.636Z,8.33
2022-11-02T06:22:20.908Z,8.34
2022-11-02T06:22:55.615Z,8.35
2022-11-02T06:23:28.640Z,8.36
2022-11-02T06:24:01.070Z,8.37
2022-11-02T06:24:35.778Z,8.37
2022-11-02T06:25:09.392Z,8.37
2022-11-02T06:25:41.498Z,8.39
2022-11-02T06:26:16.177Z,8.40
2022-11-02T06:26:49.021Z,8.40
2022-11-02T06:27:21.099Z,8.41
2022-11-02T06:27:57.785Z,8.42
2022-11-02T06:28:35.241Z,8.40
2022-11-02T06:29:09.930Z,8.41
2022-11-02T06:29:42.045Z,8.43
2022-11-02T06:30:14.117Z,8.43
2022-11-02T06:30:46.272Z,8.43
2022-11-02T06:31:21.006Z,8.44
2022-11-02T06:31:53.131Z,8.45
2022-11-02T06:32:25.395Z,8.45
2022-11-02T06:33:03.121Z,8.45
2022-11-02T06:33:40.671Z,8.45
2022-11-02T06:34:15.430Z,8.45
2022-11-02T06:34:47.561Z,8.46
2022-11-02T06:35:21.641Z,8.46
2022-11-02T06:35:57.277Z,8.48
2022-11-02T06:36:29.365Z,8.47
2022-11-02T06:37:01.461Z,8.47
2022-11-02T06:37:34.727Z,8.49
2022-11-02T06:38:09.381Z,8.49
2022-11-02T06:38:42.207Z,8.50
2022-11-02T06:39:16.950Z,8.51
2022-11-02T06:39:49.157Z,8.52
2022-11-02T06:40:24.106Z,8.53
2022-11-02T06:41:03.627Z,8.53
2022-11-02T06:41:37.905Z,8.53
2022-11-02T06:42:10.314Z,8.54
2022-11-02T06:42:56.529Z,8.57
2022-11-02T06:43:38.548Z,8.53
2022-11-02T06:44:13.256Z,8.58
2022-11-02T06:44:45.384Z,8.58
2022-11-02T06:45:17.669Z,8.59
2022-11-02T06:45:52.370Z,8.61
2022-11-02T06:46:24.457Z,8.61
2022-11-02T06:46:56.585Z,8.62
2022-11-02T06:47:34.074Z,8.63
2022-11-02T06:48:06.225Z,8.62
2022-11-02T06:48:40.918Z,8.64
2022-11-02T06:49:15.636Z,8.64
2022-11-02T06:49:47.714Z,8.67
2022-11-02T06:50:19.895Z,8.70
2022-11-02T06:50:54.821Z,8.70
2022-11-02T06:51:26.912Z,8.71
2022-11-02T06:52:01.681Z,8.74
2022-11-02T06:52:33.965Z,8.74
2022-11-02T06:53:06.405Z,8.76
2022-11-02T06:53:41.386Z,8.78
2022-11-02T06:54:13.796Z,8.80
2022-11-02T06:54:45.880Z,8.81
2022-11-02T06:55:21.507Z,8.83
2022-11-02T06:55:54.229Z,8.85
2022-11-02T06:56:28.967Z,8.87
2022-11-02T06:57:01.115Z,8.87
2022-11-02T06:57:36.521Z,8.89
2022-11-02T06:58:11.257Z,8.89
2022-11-02T06:58:43.360Z,8.91
2022-11-02T06:59:18.027Z,8.93
2022-11-02T06:59:53.902Z,8.94
2022-11-02T07:00:26.425Z,8.94
2022-11-02T07:01:02.967Z,8.95
2022-11-02T07:01:35.670Z,8.95
2022-11-02T07:02:09.329Z,8.95
2022-11-02T07:02:44.142Z,8.96
2022-11-02T07:03:16.733Z,8.97
2022-11-02T10:48:12.547Z,13.44
2022-11-02T10:48:52.781Z,13.44
2022-11-02T10:49:50.372Z,13.47
2022-11-02T10:50:44.953Z,13.48
2022-11-02T10:51:22.049Z,13.52
2022-11-02T10:51:54.396Z,13.55
2022-11-02T10:52:35.005Z,13.59
2022-11-02T10:54:16.140Z,13.69
2022-11-02T10:54:54.709Z,13.72
2022-11-02T10:55:40.494Z,13.78
2022-11-02T10:56:20.419Z,13.81
2022-11-02T10:56:52.660Z,13.85
2022-11-02T10:57:26.423Z,13.90
2022-11-02T10:58:06.666Z,13.94
2022-11-02T10:58:44.207Z,14.00
2022-11-02T10:59:20.455Z,14.05
2022-11-02T11:00:23.143Z,14.17
2022-11-02T11:01:08.244Z,14.36
2022-11-02T11:01:46.289Z,14.57
2022-11-02T11:02:21.023Z,14.79
2022-11-02T11:03:10.741Z,15.28
2022-11-02T11:04:03.959Z,15.79
2022-11-02T11:04:36.210Z,16.13
2022-11-02T11:05:13.581Z,16.44
2022-11-02T11:06:03.073Z,16.86
2022-11-02T11:06:38.035Z,17.19
2022-11-02T11:07:16.120Z,17.50
2022-11-02T11:07:50.878Z,17.80
2022-11-02T11:08:37.718Z,18.15
2022-11-02T11:09:20.185Z,18.56
2022-11-02T11:09:55.251Z,18.88
2022-11-02T11:10:27.775Z,19.20
2022-11-02T11:11:18.048Z,19.56
2022-11-02T11:11:54.899Z,19.87
2022-11-02T11:12:35.544Z,20.07
2022-11-02T11:16:19.632Z,21.65
2022-11-02T11:19:51.861Z,22.44
2022-11-02T11:20:33.557Z,22.57
2022-11-02T11:21:09.948Z,22.70
2022-11-02T11:21:43.257Z,22.82
2022-11-02T11:22:28.658Z,22.98
2022-11-02T11:23:22.480Z,23.19
2022-11-02T11:24:19.205Z,23.26
2022-11-02T11:24:54.009Z,23.29
2022-11-02T11:25:28.424Z,23.23
2022-11-02T11:26:04.945Z,23.24
2022-11-02T11:26:37.040Z,23.29
2022-11-02T11:27:18.121Z,23.30
2022-11-02T11:27:54.580Z,23.33
2022-11-02T11:28:30.975Z,23.46
2022-11-02T11:29:05.676Z,23.58
2022-11-02T11:29:40.316Z,23.71
2022-11-02T11:30:54.072Z,23.90
2022-11-02T11:31:23.351Z,24.20
2022-11-02T11:31:55.558Z,24.35
2022-11-02T11:32:30.687Z,24.48
2022-11-02T11:33:08.471Z,24.63
2022-11-02T11:33:56.231Z,24.79
2022-11-02T11:34:34.242Z,24.91
2022-11-02T11:35:15.343Z,25.01
2022-11-02T11:35:51.079Z,25.13
2022-11-02T11:36:30.591Z,25.17
2022-11-02T11:37:09.989Z,25.22
2022-11-02T11:37:51.099Z,25.21
2022-11-02T11:38:26.913Z,25.19
2022-11-02T11:39:04.908Z,25.14
2022-11-02T11:39:39.262Z,25.09
2022-11-02T11:40:20.833Z,24.99
2022-11-02T11:40:55.138Z,24.87
2022-11-02T11:41:30.943Z,24.66
2022-11-02T11:42:05.509Z,24.39
2022-11-02T11:42:40.593Z,24.16
2022-11-02T11:43:17.365Z,23.97
2022-11-02T11:43:53.884Z,23.80
2022-11-02T11:44:26.474Z,23.58
2022-11-02T11:45:05.221Z,23.39
2022-11-02T11:45:38.432Z,23.20
2022-11-02T11:46:16.002Z,23.10
2022-11-02T11:46:52.621Z,23.07
2022-11-02T11:47:30.267Z,23.01
2022-11-02T11:48:08.058Z,23.02
2022-11-02T11:48:42.664Z,22.95
2022-11-02T11:49:41.570Z,22.87
2022-11-02T11:50:22.189Z,22.83
2022-11-02T11:51:01.877Z,22.84
2022-11-02T11:51:38.124Z,22.83
2022-11-02T11:52:29.979Z,22.78
2022-11-02T11:53:23.010Z,22.74
2022-11-02T11:54:24.531Z,22.71
2022-11-02T11:54:58.684Z,22.67
2022-11-02T11:55:33.750Z,22.62
2022-11-02T11:56:06.465Z,22.56
2022-11-02T11:56:38.764Z,22.45
2022-11-02T11:57:28.484Z,22.29